TimeCST,TemperatureF,Dew PointF,Humidity,Sea Level PressureIn,VisibilityMPH,Wind Direction,Wind SpeedMPH,Gust SpeedMPH,PrecipitationIn,Events,Conditions,WindDirDegrees,DateUTC
12:53 AM,37.0,24.1,59,29.87,10.0,West,4.6,-,N/A,,Clear,270,2013-02-14 06:53:00
1:53 AM,35.1,24.1,64,29.88,10.0,West,4.6,-,N/A,,Clear,270,2013-02-14 07:53:00
2:53 AM,34.0,24.1,67,29.89,10.0,West,4.6,-,N/A,,Clear,260,2013-02-14 08:53:00
3:53 AM,35.1,24.1,64,29.90,10.0,West,6.9,-,N/A,,Clear,270,2013-02-14 09:53:00
4:53 AM,34.0,25.0,70,29.93,10.0,West,5.8,-,N/A,,Scattered Clouds,270,2013-02-14 10:53:00
5:53 AM,34.0,25.0,70,29.95,10.0,West,6.9,-,N/A,,Clear,270,2013-02-14 11:53:00
6:53 AM,30.9,24.1,76,29.98,10.0,West,3.5,-,N/A,,Clear,270,2013-02-14 12:53:00
7:53 AM,36.0,28.0,73,30.02,10.0,West,9.2,-,N/A,,Clear,260,2013-02-14 13:53:00
8:53 AM,39.9,30.9,70,30.03,10.0,WNW,5.8,-,N/A,,Clear,300,2013-02-14 14:53:00
9:53 AM,43.0,30.9,62,30.06,10.0,West,11.5,-,N/A,,Clear,260,2013-02-14 15:53:00
10:53 AM,48.0,32.0,54,30.06,10.0,West,9.2,-,N/A,,Clear,270,2013-02-14 16:53:00
11:53 AM,48.9,30.0,48,30.08,10.0,NW,11.5,-,N/A,,Clear,310,2013-02-14 17:53:00
12:53 PM,50.0,30.0,46,30.06,10.0,WNW,11.5,-,N/A,,Clear,300,2013-02-14 18:53:00
1:53 PM,51.1,27.0,39,30.06,10.0,WNW,12.7,20.7,N/A,,Clear,300,2013-02-14 19:53:00
2:53 PM,51.1,27.0,39,30.07,10.0,WNW,15.0,-,N/A,,Mostly Cloudy,290,2013-02-14 20:53:00
3:53 PM,51.1,24.1,35,30.08,10.0,West,11.5,-,N/A,,Clear,280,2013-02-14 21:53:00
4:53 PM,48.9,21.9,35,30.11,10.0,NW,17.3,26.5,N/A,,Partly Cloudy,320,2013-02-14 22:53:00
5:53 PM,46.9,24.1,41,30.12,10.0,NW,8.1,-,N/A,,Overcast,320,2013-02-14 23:53:00
6:53 PM,45.0,23.0,42,30.15,10.0,WNW,8.1,-,N/A,,Partly Cloudy,300,2013-02-15 00:53:00
7:53 PM,44.1,23.0,43,30.16,10.0,NW,16.1,24.2,N/A,,Partly Cloudy,310,2013-02-15 01:53:00
8:53 PM,41.0,21.0,45,30.17,10.0,WNW,8.1,-,N/A,,Clear,300,2013-02-15 02:53:00
9:53 PM,39.0,21.0,49,30.20,10.0,NW,9.2,-,N/A,,Clear,320,2013-02-15 03:53:00
10:53 PM,36.0,23.0,59,30.22,10.0,WNW,12.7,20.7,N/A,,Clear,290,2013-02-15 04:53:00
11:53 PM,33.1,23.0,66,30.24,10.0,WNW,9.2,-,N/A,,Mostly Cloudy,290,2013-02-15 05:53:00